Terminal Aerodrome Forecast
Issued by NWS

Home | Current Version | Previous Version | Text Only | Print | Product List | Glossary On
Versions: 1 2 3 4 5 6 7 8 9 10 11 12
541
FTUS44 KSJT 132329
TAFSOA
TAF
KSOA 132329Z 1400/1424 17011G17KT P6SM SKC
     FM140100 18008KT P6SM SKC
     FM140800 19011KT P6SM BKN015
     FM142100 21007KT P6SM SCT250=

USA.gov is the U.S. government's official web portal to all federal, state and local government web resources and services.